Startpagina
METAR-TAF:

METAR-TAF

Vliegvelden :

Tiree, Schotland

breedte: 56-30N, lengte: 006-53W, hoogte: 12 m

Actueel weer

Dit bericht is 15 minuten geleden gemaakt, om 11:20 UTC
Wind 19 kt uit het oosten
Temperatuur 8°C
Vochtigheid 76%
Druk 1012 hPa
Zicht 10 km of meer
Weinig wolken op 3500 ft
Verspreide wolken op 4100 ft
buien in de omgeving

METAR: EGPU 211120Z 08019KT 9999 VCSH FEW035 SCT041 08/04 Q1012

Tijdstip: 11:35 (11:35 UTC)

Verwachting

Dit bericht is 32 minuten geleden gemaakt, om 11:03 UTC
Verwachting geldig van 21 om 12 UTC tot 21 om 19 UTC
Wind 20 kt uit het oosten
Zicht 10 km of meer
Verspreide wolken op 3500 ft
Tijdelijke
van 21 om 12 UTC tot 21 om 15 UTC
Wind 22 kt uit het oosten met uitschieters tot 32 kt
Wijzigt naar
van 21 om 15 UTC tot 21 om 18 UTC
Wind 22 kt uit het oostzuidoosten met uitschieters tot 35 kt

TAF: EGPU 211103Z 2112/2119 08020KT 9999 SCT035 TEMPO 2112/2115 09022G32KT BECMG 2115/2118 12022G35KT

Waarnemingen en weersverwachtingen van meer dan 4000 vliegvelden (METAR en TAF).

De beschikbare stations zijn de gele en rode punten op de kaart.

Ga met uw muis naar het station om de naam te zien.

Klik dan om waarnemingen en weersverwachtingen te zien.

kaart wijzigen: klik op de groene knoppen met een zwart kruis om in te zoomen, op de groene knop met een streepje om uit te zoomen of op de groene pijlen voor aangrenzende kaarten.


METAR-TAF: